Terminal Aerodrome Forecast
Issued by NWS

Home | Current Version | Previous Version | Text Only | Print | Product List | Glossary On
Versions: 1 2 3 4 5 6 7 8 9 10 11 12 13 14 15 16 17 18 19 20 21 22 23 24 25 26 27 28 29 30 31 32 33 34
000
FTAK31 PANC 240224 AAA
TAFAIL
TAF AMD
PAIL 240224Z 2402/2424 VRB04KT 3SM -SHSN BKN015 OVC025
      TEMPO 2402/2403 1SM -SN BR
     FM240800 06008KT P6SM VCFG FEW080 SCT150
     FM241300 03006KT 1SM BR SCT002 SCT050
     FM241500 02005KT 3/4SM -SN BR VV010=

USA.gov is the U.S. government's official web portal to all federal, state and local government web resources and services.